createdAt,value
2023-02-11T00:01:18.349Z,8.93
2023-02-11T00:03:47.901Z,11.13
2023-02-11T00:06:16.010Z,13.23
2023-02-11T00:08:44.127Z,9.03
2023-02-11T00:11:15.561Z,23.57
2023-02-11T00:13:44.106Z,18.90
2023-02-11T00:16:14.964Z,14.27
2023-02-11T00:18:43.064Z,9.17
2023-02-11T00:21:14.899Z,9.00
2023-02-11T00:23:43.626Z,9.60
2023-02-11T00:26:15.150Z,8.47
2023-02-11T00:28:43.482Z,10.47
2023-02-11T00:31:11.582Z,8.17
2023-02-11T00:33:39.653Z,11.60
2023-02-11T00:36:09.698Z,11.53
2023-02-11T00:38:39.096Z,10.77
2023-02-11T00:41:07.183Z,10.80
2023-02-11T00:43:36.453Z,10.80
2023-02-11T00:46:04.682Z,10.93
2023-02-11T00:48:32.934Z,8.93
2023-02-11T00:51:00.983Z,9.27
2023-02-11T00:53:30.526Z,9.07
2023-02-11T00:56:01.077Z,11.07
2023-02-11T00:58:29.590Z,9.07
2023-02-11T01:00:58.543Z,9.87
2023-02-11T01:03:26.604Z,8.50
2023-02-11T01:05:54.722Z,10.93
2023-02-11T01:08:23.152Z,8.97
2023-02-11T01:10:56.693Z,10.47
2023-02-11T01:13:26.729Z,12.90
2023-02-11T01:15:55.333Z,9.80
2023-02-11T01:18:23.359Z,11.07
2023-02-11T01:20:53.100Z,13.43
2023-02-11T01:23:21.121Z,11.10
2023-02-11T01:25:49.465Z,12.43
2023-02-11T01:28:18.937Z,10.47
2023-02-11T01:30:48.413Z,10.83
2023-02-11T01:33:16.807Z,9.77
2023-02-11T01:35:45.566Z,11.53
2023-02-11T01:38:17.589Z,8.50
2023-02-11T01:40:49.210Z,12.87
2023-02-11T01:43:17.201Z,12.27
2023-02-11T01:46:03.878Z,10.40
2023-02-11T01:48:35.574Z,11.20
2023-02-11T01:51:08.109Z,10.47
2023-02-11T01:53:55.374Z,10.30
2023-02-11T01:56:43.381Z,10.40
2023-02-11T01:59:16.354Z,11.07
2023-02-11T02:01:49.581Z,16.87
2023-02-11T02:04:20.427Z,10.23
2023-02-11T02:06:54.521Z,11.23
2023-02-11T02:09:26.805Z,11.23
2023-02-11T02:11:55.075Z,8.10
2023-02-11T02:14:23.402Z,10.90
2023-02-11T02:16:54.011Z,9.40
2023-02-11T02:19:47.709Z,12.63
2023-02-11T02:22:56.745Z,9.50
2023-02-11T02:25:49.971Z,8.70
2023-02-11T02:28:48.106Z,10.70
2023-02-11T02:31:51.232Z,11.90
2023-02-11T02:34:28.492Z,10.57
2023-02-11T02:37:04.286Z,10.60
2023-02-11T02:39:37.084Z,11.33
2023-02-11T02:42:06.045Z,13.07
2023-02-11T02:44:34.936Z,16.67
2023-02-11T02:47:02.951Z,10.33
2023-02-11T02:49:32.461Z,11.97
2023-02-11T02:52:19.561Z,13.30
2023-02-11T02:55:21.605Z,17.37
2023-02-11T02:58:04.000Z,9.20
2023-02-11T03:00:37.523Z,9.13
2023-02-11T03:03:18.536Z,10.83
2023-02-11T03:05:56.140Z,10.87
2023-02-11T03:08:30.155Z,10.70
2023-02-11T03:11:00.299Z,7.37
2023-02-11T03:13:33.813Z,10.43
2023-02-11T03:16:08.410Z,8.73
2023-02-11T03:18:40.842Z,6.90
2023-02-11T03:21:11.407Z,9.47
2023-02-11T03:23:43.483Z,6.67
2023-02-11T03:26:19.698Z,6.33
2023-02-11T03:28:55.276Z,4.77
2023-02-11T03:31:31.976Z,4.13
2023-02-11T03:34:05.259Z,6.03
2023-02-11T03:36:41.309Z,4.90
2023-02-11T03:39:12.267Z,6.50
2023-02-11T03:41:41.826Z,5.30
2023-02-11T03:44:11.777Z,5.30
2023-02-11T03:46:43.207Z,4.80
2023-02-11T03:49:13.523Z,5.10
2023-02-11T03:51:43.221Z,5.53
2023-02-11T03:54:16.046Z,6.13
2023-02-11T03:56:50.406Z,8.30
2023-02-11T03:59:18.448Z,7.63
2023-02-11T04:01:46.425Z,5.70
2023-02-11T04:04:14.903Z,6.50
2023-02-11T04:06:44.546Z,4.53
2023-02-11T04:09:12.617Z,6.20
2023-02-11T04:11:40.588Z,8.27
2023-02-11T04:14:08.546Z,7.80
2023-02-11T04:16:36.569Z,7.80
2023-02-11T04:19:04.672Z,7.47
2023-02-11T04:21:32.749Z,6.40
2023-02-11T04:24:02.139Z,6.03
2023-02-11T04:26:30.103Z,5.43
2023-02-11T04:28:58.124Z,6.33
2023-02-11T04:31:26.190Z,6.70
2023-02-11T04:33:54.334Z,8.43
2023-02-11T04:36:22.282Z,13.03
2023-02-11T04:38:50.348Z,9.10
2023-02-11T04:41:19.812Z,7.63
2023-02-11T04:43:47.754Z,8.10
2023-02-11T04:46:15.764Z,12.07
2023-02-11T04:48:43.800Z,7.37
2023-02-11T04:51:11.800Z,7.83
2023-02-11T04:53:39.914Z,9.53
2023-02-11T04:56:08.266Z,7.30
2023-02-11T04:58:37.706Z,7.63
2023-02-11T05:01:09.176Z,7.33
2023-02-11T05:03:37.602Z,7.97
2023-02-11T05:06:06.508Z,7.53
2023-02-11T05:08:34.642Z,6.03
2023-02-11T05:11:03.153Z,6.33
2023-02-11T05:13:31.628Z,6.03
2023-02-11T05:16:01.213Z,6.97
2023-02-11T05:18:29.296Z,4.37
2023-02-11T05:20:57.647Z,4.97
2023-02-11T05:23:25.628Z,8.27
2023-02-11T05:25:53.601Z,7.77
2023-02-11T05:28:21.613Z,7.00
2023-02-11T05:30:50.076Z,5.27
2023-02-11T05:33:19.480Z,8.13
2023-02-11T05:35:47.455Z,6.33
2023-02-11T05:38:15.415Z,3.70
2023-02-11T05:40:43.425Z,6.33
2023-02-11T05:43:11.410Z,8.37
2023-02-11T05:45:39.408Z,7.37
2023-02-11T05:48:07.398Z,8.00
2023-02-11T05:50:36.783Z,6.87
2023-02-11T05:53:05.776Z,7.90
2023-02-11T05:55:34.108Z,5.60
2023-02-11T05:58:02.232Z,6.60
2023-02-11T06:00:30.219Z,6.20
2023-02-11T06:02:58.246Z,7.33
2023-02-11T06:05:26.381Z,9.50
2023-02-11T06:07:55.792Z,9.20
2023-02-11T06:10:23.831Z,6.83
2023-02-11T06:12:51.856Z,9.47
2023-02-11T06:15:19.983Z,6.63
2023-02-11T06:17:48.037Z,7.23
2023-02-11T06:20:16.174Z,7.13
2023-02-11T06:22:44.205Z,8.70
2023-02-11T06:25:13.746Z,8.50
2023-02-11T06:27:41.752Z,10.33
2023-02-11T06:30:11.056Z,5.73
2023-02-11T06:32:44.670Z,7.70
2023-02-11T06:35:13.117Z,6.23
2023-02-11T06:37:41.447Z,7.77
2023-02-11T06:40:09.776Z,4.20
2023-02-11T06:42:39.675Z,6.33
2023-02-11T06:45:09.519Z,6.93
2023-02-11T06:47:37.746Z,10.53
2023-02-11T06:50:06.250Z,6.67
2023-02-11T06:52:34.452Z,9.03
2023-02-11T06:55:02.629Z,7.70
2023-02-11T06:57:32.116Z,6.27
2023-02-11T07:00:01.561Z,9.27
2023-02-11T07:02:29.551Z,6.20
2023-02-11T07:04:57.533Z,7.87
2023-02-11T07:07:25.539Z,7.47
2023-02-11T07:09:53.623Z,7.43
2023-02-11T07:12:21.575Z,8.37
2023-02-11T07:14:49.540Z,7.27
2023-02-11T07:17:20.110Z,6.33
2023-02-11T07:19:48.137Z,6.30
2023-02-11T07:22:16.300Z,6.77
2023-02-11T07:24:44.353Z,4.57
2023-02-11T07:27:12.326Z,5.33
2023-02-11T07:29:40.283Z,6.50
2023-02-11T07:32:08.375Z,4.10
2023-02-11T07:34:38.087Z,5.67
2023-02-11T07:37:06.379Z,6.50
2023-02-11T07:39:34.402Z,7.90
2023-02-11T07:42:02.433Z,6.90
2023-02-11T07:44:30.516Z,9.67
2023-02-11T07:46:58.503Z,9.77
2023-02-11T07:49:26.709Z,9.20
2023-02-11T07:51:56.235Z,5.40
2023-02-11T07:54:24.245Z,8.83
2023-02-11T07:56:52.234Z,6.53
2023-02-11T07:59:22.867Z,9.67
2023-02-11T08:01:51.581Z,9.37
2023-02-11T08:04:19.684Z,7.27
2023-02-11T08:06:47.858Z,8.43
2023-02-11T08:09:18.024Z,13.27
2023-02-11T08:11:53.166Z,9.40
2023-02-11T08:14:21.671Z,8.30
2023-02-11T08:16:49.775Z,10.30
2023-02-11T08:19:18.449Z,7.13
2023-02-11T08:21:47.120Z,5.00
2023-02-11T08:24:15.195Z,9.07
2023-02-11T08:26:44.894Z,6.23
2023-02-11T08:29:15.104Z,6.50
2023-02-11T08:31:45.837Z,6.37
2023-02-11T08:34:18.325Z,8.20
2023-02-11T08:36:47.739Z,5.80
2023-02-11T08:39:20.290Z,5.87
2023-02-11T08:41:51.035Z,6.93
2023-02-11T08:44:19.718Z,9.07
2023-02-11T08:46:48.587Z,7.00
2023-02-11T08:49:17.007Z,7.47
2023-02-11T08:51:45.982Z,5.90
2023-02-11T08:54:14.541Z,6.63
2023-02-11T08:56:42.740Z,6.33
2023-02-11T08:59:14.641Z,6.53
2023-02-11T09:01:44.272Z,8.97
2023-02-11T09:04:12.634Z,7.10
2023-02-11T09:06:40.723Z,7.67
2023-02-11T09:09:13.673Z,6.43
2023-02-11T09:11:42.532Z,4.90
2023-02-11T09:14:19.492Z,7.53
2023-02-11T09:16:47.740Z,5.47
2023-02-11T09:19:15.783Z,5.20
2023-02-11T09:21:43.846Z,5.40
2023-02-11T09:24:12.639Z,7.63
2023-02-11T09:26:44.160Z,7.70
2023-02-11T09:29:13.764Z,25.30
2023-02-11T09:31:41.964Z,25.63
2023-02-11T09:34:10.174Z,10.10
2023-02-11T09:36:40.897Z,5.93
2023-02-11T09:39:12.704Z,5.13
2023-02-11T09:41:50.570Z,6.13
2023-02-11T09:44:24.269Z,5.27
2023-02-11T09:46:58.415Z,4.47
2023-02-11T09:49:35.042Z,4.93
2023-02-11T09:52:07.746Z,4.13
2023-02-11T09:54:45.929Z,4.70
2023-02-11T09:57:27.708Z,10.33
2023-02-11T09:59:58.782Z,12.43
2023-02-11T10:02:38.056Z,11.27
2023-02-11T10:05:19.133Z,16.27
2023-02-11T10:07:52.791Z,15.90
2023-02-11T10:10:41.318Z,9.87
2023-02-11T10:13:34.720Z,27.57
2023-02-11T10:16:12.830Z,10.70
2023-02-11T10:18:54.083Z,6.27
2023-02-11T10:21:32.362Z,8.07
2023-02-11T10:24:04.580Z,11.60
2023-02-11T10:26:34.493Z,12.97
2023-02-11T10:29:12.484Z,5.53
2023-02-11T10:31:45.701Z,4.97
2023-02-11T10:34:14.988Z,10.93
2023-02-11T10:36:45.633Z,6.93
2023-02-11T10:39:15.700Z,6.27
2023-02-11T10:41:46.468Z,6.10
2023-02-11T10:44:24.869Z,79.80
2023-02-11T10:46:56.342Z,90.47
2023-02-11T10:49:42.262Z,183.13
2023-02-11T10:52:21.497Z,42.70
2023-02-11T10:55:04.316Z,12.77
2023-02-11T10:57:36.239Z,8.02
2023-02-11T11:00:20.558Z,6.57
2023-02-11T11:02:57.041Z,4.35
2023-02-11T11:05:32.423Z,4.53
2023-02-11T11:08:03.231Z,3.08
2023-02-11T11:10:37.551Z,3.78
2023-02-11T11:13:05.628Z,3.63
2023-02-11T11:15:33.667Z,6.55
2023-02-11T11:18:22.632Z,3.45
2023-02-11T11:21:00.866Z,2.78
2023-02-11T11:23:31.012Z,5.30
2023-02-11T11:26:05.631Z,7.00
2023-02-11T11:28:39.833Z,6.38
2023-02-11T11:31:15.116Z,3.63
2023-02-11T11:33:45.628Z,8.43
2023-02-11T11:36:16.579Z,3.75
2023-02-11T11:38:50.298Z,4.05
2023-02-11T11:41:25.799Z,3.53
2023-02-11T11:43:59.239Z,3.72
2023-02-11T11:46:30.662Z,4.47
2023-02-11T11:49:08.592Z,3.15
2023-02-11T11:51:39.993Z,3.13
2023-02-11T11:54:13.837Z,2.95
2023-02-11T11:56:59.433Z,3.60
2023-02-11T11:59:28.350Z,3.63
2023-02-11T12:02:12.720Z,5.25
2023-02-11T12:04:58.004Z,7.38
2023-02-11T12:07:42.299Z,5.22
2023-02-11T12:10:35.289Z,4.40
2023-02-11T12:13:14.985Z,4.47
2023-02-11T12:15:55.721Z,3.28
2023-02-11T12:18:38.790Z,2.63
2023-02-11T12:21:25.069Z,2.30
2023-02-11T12:24:11.488Z,2.80
2023-02-11T12:26:46.860Z,4.03
2023-02-11T12:29:28.146Z,2.90
2023-02-11T12:32:08.041Z,4.22
2023-02-11T12:35:02.839Z,4.05
2023-02-11T12:37:47.516Z,3.90
2023-02-11T12:40:22.240Z,5.53
2023-02-11T12:43:15.599Z,4.45
2023-02-11T12:45:54.370Z,2.90
2023-02-11T12:48:59.484Z,3.22
2023-02-11T12:51:41.679Z,2.47
2023-02-11T12:54:20.774Z,4.95
2023-02-11T12:56:55.384Z,2.88
2023-02-11T12:59:39.654Z,3.42
2023-02-11T13:02:17.932Z,5.38
2023-02-11T13:04:50.892Z,2.13
2023-02-11T13:07:27.208Z,2.40
2023-02-11T13:10:02.302Z,2.90
2023-02-11T13:12:50.958Z,1.80
2023-02-11T13:15:19.313Z,5.13
2023-02-11T13:17:55.982Z,2.60
2023-02-11T13:20:34.063Z,2.72
2023-02-11T13:23:12.793Z,1.60
2023-02-11T13:25:49.163Z,2.28
2023-02-11T13:28:29.383Z,3.25
2023-02-11T13:31:02.906Z,1.88
2023-02-11T13:33:36.129Z,2.50
2023-02-11T13:36:26.061Z,2.13
2023-02-11T13:38:58.397Z,2.15
2023-02-11T13:41:32.002Z,3.22
2023-02-11T13:44:02.998Z,2.95
2023-02-11T13:46:50.552Z,2.30
2023-02-11T13:49:24.715Z,4.25
2023-02-11T13:51:54.382Z,3.67
2023-02-11T13:54:28.254Z,4.22
2023-02-11T13:57:28.106Z,2.78
2023-02-11T13:59:57.936Z,5.47
2023-02-11T14:02:47.642Z,2.80
2023-02-11T14:05:45.568Z,4.50
2023-02-11T14:08:39.055Z,6.20
2023-02-11T14:11:11.056Z,2.67
2023-02-11T14:14:06.305Z,4.30
2023-02-11T14:16:38.440Z,4.07
2023-02-11T14:19:07.358Z,4.53
2023-02-11T14:21:39.137Z,4.00
2023-02-11T14:24:48.122Z,3.33
2023-02-11T14:27:24.744Z,3.45
2023-02-11T14:30:11.818Z,6.93
2023-02-11T14:32:52.405Z,2.92
2023-02-11T14:35:29.029Z,3.25
2023-02-11T14:38:05.041Z,4.90
2023-02-11T14:40:36.643Z,6.60
2023-02-11T14:43:13.421Z,13.20
2023-02-11T14:45:46.611Z,9.00
2023-02-11T14:48:17.897Z,4.35
2023-02-11T14:50:50.068Z,4.57
2023-02-11T14:53:20.844Z,8.13
2023-02-11T14:55:53.634Z,4.90
2023-02-11T14:58:23.250Z,4.72
2023-02-11T15:00:59.255Z,4.53
2023-02-11T15:03:29.962Z,6.28
2023-02-11T15:06:00.555Z,7.45
2023-02-11T15:08:30.147Z,6.40
2023-02-11T15:10:59.057Z,6.40
2023-02-11T15:13:31.133Z,5.25
2023-02-11T15:16:09.416Z,6.07
2023-02-11T15:18:42.119Z,8.15
2023-02-11T15:21:11.177Z,7.10
2023-02-11T15:23:40.805Z,6.00
2023-02-11T15:26:14.978Z,8.13
2023-02-11T15:28:52.129Z,9.18
2023-02-11T15:31:24.476Z,8.73
2023-02-11T15:33:53.643Z,10.10
2023-02-11T15:36:28.842Z,9.13
2023-02-11T15:39:31.850Z,10.40
2023-02-11T15:42:26.923Z,9.68
2023-02-11T15:45:13.084Z,15.82
2023-02-11T15:47:48.416Z,12.35
2023-02-11T15:50:24.534Z,9.35
2023-02-11T15:52:53.630Z,12.25
2023-02-11T15:55:22.200Z,9.70
2023-02-11T15:57:55.049Z,12.77
2023-02-11T16:00:26.022Z,10.82
2023-02-11T16:02:55.688Z,11.82
2023-02-11T16:05:29.069Z,9.90
2023-02-11T16:07:57.597Z,11.93
2023-02-11T16:10:29.102Z,12.73
2023-02-11T16:13:04.077Z,11.13
2023-02-11T16:15:55.196Z,15.23
2023-02-11T16:18:38.867Z,16.35
2023-02-11T16:21:14.434Z,11.20
2023-02-11T16:23:43.463Z,13.38
2023-02-11T16:26:21.878Z,13.95
2023-02-11T16:28:50.271Z,13.82
2023-02-11T16:31:18.798Z,12.70
2023-02-11T16:33:48.246Z,11.88
2023-02-11T16:36:18.298Z,18.52
2023-02-11T16:38:46.339Z,19.15
2023-02-11T16:41:14.833Z,19.00
2023-02-11T16:43:42.908Z,11.80
2023-02-11T16:46:16.026Z,16.55
2023-02-11T16:48:44.430Z,15.38
2023-02-11T16:51:14.230Z,14.45
2023-02-11T16:53:42.352Z,13.43
2023-02-11T16:56:15.855Z,16.58
2023-02-11T16:58:43.980Z,16.52
2023-02-11T17:01:13.921Z,17.65
2023-02-11T17:03:43.852Z,17.58
2023-02-11T17:06:14.240Z,14.10
2023-02-11T17:08:42.639Z,20.50
2023-02-11T17:11:10.804Z,13.73
2023-02-11T17:13:39.620Z,19.52
2023-02-11T17:16:13.375Z,35.70
2023-02-11T17:18:41.426Z,19.42
2023-02-11T17:21:09.840Z,16.88
2023-02-11T17:23:39.286Z,11.45
2023-02-11T17:26:08.142Z,17.63
2023-02-11T17:28:36.281Z,15.43
2023-02-11T17:31:09.555Z,9.88
2023-02-11T17:33:38.943Z,5.07
2023-02-11T17:36:08.190Z,7.82
2023-02-11T17:38:37.336Z,11.70
2023-02-11T17:41:07.087Z,5.75
2023-02-11T17:43:35.167Z,8.97
2023-02-11T17:46:06.457Z,9.23
2023-02-11T17:48:34.531Z,12.65
2023-02-11T17:51:02.487Z,12.87
2023-02-11T17:53:30.835Z,11.07
2023-02-11T17:55:58.845Z,17.92
2023-02-11T17:58:28.185Z,18.45
2023-02-11T18:00:59.520Z,15.70
2023-02-11T18:03:27.697Z,10.85
2023-02-11T18:06:00.178Z,9.63
2023-02-11T18:08:28.202Z,7.75
2023-02-11T18:10:56.253Z,5.95
2023-02-11T18:13:24.287Z,8.25
2023-02-11T18:15:53.928Z,9.15
2023-02-11T18:18:22.044Z,18.65
2023-02-11T18:20:57.669Z,8.23
2023-02-11T18:23:25.819Z,8.88
2023-02-11T18:25:54.011Z,8.10
2023-02-11T18:28:22.349Z,8.02
2023-02-11T18:30:50.424Z,8.25
2023-02-11T18:33:19.802Z,6.43
2023-02-11T18:35:49.278Z,6.32
2023-02-11T18:38:18.673Z,5.75
2023-02-11T18:40:47.609Z,7.68
2023-02-11T18:43:15.690Z,13.03
2023-02-11T18:45:44.463Z,13.63
2023-02-11T18:48:12.868Z,15.18
2023-02-11T18:50:44.570Z,12.50
2023-02-11T18:53:14.124Z,12.10
2023-02-11T18:55:43.066Z,8.65
2023-02-11T18:58:11.149Z,7.47
2023-02-11T19:00:42.121Z,5.93
2023-02-11T19:03:10.112Z,5.53
2023-02-11T19:05:43.406Z,7.10
2023-02-11T19:08:11.928Z,6.57
2023-02-11T19:10:42.084Z,6.73
2023-02-11T19:13:10.247Z,8.70
2023-02-11T19:15:42.466Z,6.43
2023-02-11T19:18:10.894Z,7.80
2023-02-11T19:20:40.609Z,8.20
2023-02-11T19:23:10.455Z,10.82
2023-02-11T19:25:38.885Z,11.55
2023-02-11T19:28:07.129Z,14.20
2023-02-11T19:30:37.107Z,9.75
2023-02-11T19:33:05.238Z,9.93
2023-02-11T19:35:35.687Z,8.67
2023-02-11T19:38:04.454Z,8.40
2023-02-11T19:40:34.256Z,8.10
2023-02-11T19:43:02.207Z,9.80
2023-02-11T19:45:30.315Z,8.80
2023-02-11T19:47:58.809Z,11.30
2023-02-11T19:50:27.335Z,12.93
2023-02-11T19:52:55.532Z,14.57
2023-02-11T19:55:23.585Z,11.90
2023-02-11T19:57:52.961Z,15.67
2023-02-11T20:00:21.744Z,13.87
2023-02-11T20:02:49.869Z,13.90
2023-02-11T20:05:18.092Z,9.93
2023-02-11T20:07:46.227Z,31.47
2023-02-11T20:10:14.490Z,17.77
2023-02-11T20:12:42.594Z,19.23
2023-02-11T20:15:12.333Z,7.23
2023-02-11T20:17:40.292Z,12.10
2023-02-11T20:20:09.254Z,12.27
2023-02-11T20:22:37.291Z,14.80
2023-02-11T20:25:05.659Z,15.80
2023-02-11T20:27:33.668Z,8.60
2023-02-11T20:30:01.829Z,8.27
2023-02-11T20:32:37.870Z,9.27
2023-02-11T20:35:07.349Z,9.27
2023-02-11T20:37:35.396Z,8.40
2023-02-11T20:40:03.416Z,9.40
2023-02-11T20:42:31.464Z,9.70
2023-02-11T20:44:59.436Z,11.23
2023-02-11T20:47:27.388Z,15.10
2023-02-11T20:49:56.963Z,17.37
2023-02-11T20:52:24.937Z,22.47
2023-02-11T20:54:52.953Z,13.77
2023-02-11T20:57:20.912Z,9.47
2023-02-11T20:59:48.946Z,21.40
2023-02-11T21:02:16.926Z,11.00
2023-02-11T21:04:44.874Z,22.80
2023-02-11T21:07:14.374Z,9.00
2023-02-11T21:09:42.398Z,14.23
2023-02-11T21:12:10.438Z,12.23
2023-02-11T21:14:38.454Z,12.00
2023-02-11T21:17:06.742Z,11.60
2023-02-11T21:19:34.771Z,11.70
2023-02-11T21:22:02.884Z,10.10
2023-02-11T21:24:32.435Z,13.83
2023-02-11T21:27:00.725Z,13.67
2023-02-11T21:29:28.798Z,12.43
2023-02-11T21:31:57.045Z,14.93
2023-02-11T21:34:25.296Z,16.73
2023-02-11T21:36:53.278Z,18.73
2023-02-11T21:39:21.454Z,13.37
2023-02-11T21:41:51.648Z,15.93
2023-02-11T21:44:19.990Z,18.50
2023-02-11T21:46:48.072Z,9.40
2023-02-11T21:49:16.171Z,15.63
2023-02-11T21:51:44.214Z,16.60
2023-02-11T21:54:12.504Z,16.17
2023-02-11T21:56:40.714Z,20.77
2023-02-11T21:59:13.711Z,20.20
2023-02-11T22:01:41.930Z,19.40
2023-02-11T22:04:11.034Z,17.03
2023-02-11T22:06:39.840Z,15.57
2023-02-11T22:09:10.877Z,15.33
2023-02-11T22:11:39.358Z,15.03
2023-02-11T22:14:09.762Z,15.10
2023-02-11T22:16:37.987Z,19.27
2023-02-11T22:19:07.525Z,17.80
2023-02-11T22:21:35.610Z,14.07
2023-02-11T22:24:03.590Z,11.13
2023-02-11T22:26:31.639Z,12.27
2023-02-11T22:28:59.660Z,11.53
2023-02-11T22:31:31.023Z,12.20
2023-02-11T22:33:59.851Z,8.93
2023-02-11T22:36:29.630Z,13.03
2023-02-11T22:39:00.775Z,13.63
2023-02-11T22:41:28.910Z,11.30
2023-02-11T22:43:56.940Z,14.77
2023-02-11T22:46:25.156Z,11.67
2023-02-11T22:48:55.138Z,9.03
2023-02-11T22:51:25.162Z,9.50
2023-02-11T22:53:54.600Z,13.37
2023-02-11T22:56:22.806Z,14.70
2023-02-11T22:58:53.311Z,9.17
2023-02-11T23:01:21.680Z,8.97
2023-02-11T23:03:49.889Z,7.50
2023-02-11T23:06:19.684Z,8.07
2023-02-11T23:08:47.962Z,6.83
2023-02-11T23:11:19.365Z,13.50
2023-02-11T23:13:49.063Z,13.93
2023-02-11T23:16:19.132Z,12.73
2023-02-11T23:18:48.810Z,12.87
2023-02-11T23:21:21.304Z,23.00
2023-02-11T23:23:49.840Z,13.23
2023-02-11T23:26:19.980Z,12.57
2023-02-11T23:28:48.070Z,13.57
2023-02-11T23:31:18.479Z,13.47
2023-02-11T23:33:47.304Z,26.80
2023-02-11T23:36:16.126Z,24.33
2023-02-11T23:38:45.972Z,14.97
2023-02-11T23:41:14.750Z,25.60
2023-02-11T23:43:43.103Z,10.03
2023-02-11T23:46:11.833Z,8.47
2023-02-11T23:48:40.629Z,10.87
2023-02-11T23:51:09.695Z,10.80
2023-02-11T23:53:38.003Z,25.47
2023-02-11T23:56:11.684Z,17.10
2023-02-11T23:58:39.761Z,10.73
